sensor_id;sensor_type;location;lat;lon;timestamp;P1;durP1;ratioP1;P2;durP2;ratioP2
22298;SDS011;11317;51.072;17.036;2023-03-03T00:02:20;63.65;;;19.92;;
22298;SDS011;11317;51.072;17.036;2023-03-03T00:04:46;70.05;;;19.88;;
22298;SDS011;11317;51.072;17.036;2023-03-03T00:07:12;63.67;;;18.83;;
22298;SDS011;11317;51.072;17.036;2023-03-03T00:09:45;55.15;;;17.83;;
22298;SDS011;11317;51.072;17.036;2023-03-03T00:15:19;58.90;;;18.17;;
22298;SDS011;11317;51.072;17.036;2023-03-03T00:17:46;72.28;;;19.63;;
22298;SDS011;11317;51.072;17.036;2023-03-03T00:23:19;62.25;;;18.83;;
22298;SDS011;11317;51.072;17.036;2023-03-03T00:25:51;58.33;;;18.73;;
22298;SDS011;11317;51.072;17.036;2023-03-03T00:28:25;57.92;;;18.33;;
22298;SDS011;11317;51.072;17.036;2023-03-03T00:30:52;56.28;;;18.40;;
22298;SDS011;11317;51.072;17.036;2023-03-03T00:33:25;52.53;;;19.95;;
22298;SDS011;11317;51.072;17.036;2023-03-03T00:36:39;64.88;;;18.98;;
22298;SDS011;11317;51.072;17.036;2023-03-03T00:38:52;64.65;;;20.38;;
22298;SDS011;11317;51.072;17.036;2023-03-03T00:41:21;53.22;;;19.38;;
22298;SDS011;11317;51.072;17.036;2023-03-03T00:43:49;55.42;;;18.95;;
22298;SDS011;11317;51.072;17.036;2023-03-03T00:46:17;57.85;;;19.65;;
22298;SDS011;11317;51.072;17.036;2023-03-03T00:48:44;65.15;;;18.30;;
22298;SDS011;11317;51.072;17.036;2023-03-03T00:53:58;71.10;;;20.15;;
22298;SDS011;11317;51.072;17.036;2023-03-03T00:56:24;64.93;;;18.60;;
22298;SDS011;11317;51.072;17.036;2023-03-03T00:58:51;61.45;;;18.98;;
22298;SDS011;11317;51.072;17.036;2023-03-03T01:01:18;65.55;;;17.50;;
22298;SDS011;11317;51.072;17.036;2023-03-03T01:03:44;55.13;;;16.60;;
22298;SDS011;11317;51.072;17.036;2023-03-03T01:06:10;54.05;;;18.40;;
22298;SDS011;11317;51.072;17.036;2023-03-03T01:08:37;63.53;;;18.83;;
22298;SDS011;11317;51.072;17.036;2023-03-03T01:11:05;48.90;;;16.48;;
22298;SDS011;11317;51.072;17.036;2023-03-03T01:13:42;53.13;;;16.77;;
22298;SDS011;11317;51.072;17.036;2023-03-03T01:16:11;49.72;;;18.08;;
22298;SDS011;11317;51.072;17.036;2023-03-03T01:18:37;59.33;;;16.60;;
22298;SDS011;11317;51.072;17.036;2023-03-03T01:21:05;47.70;;;16.27;;
22298;SDS011;11317;51.072;17.036;2023-03-03T01:23:32;50.90;;;16.90;;
22298;SDS011;11317;51.072;17.036;2023-03-03T01:25:58;47.97;;;16.63;;
22298;SDS011;11317;51.072;17.036;2023-03-03T01:28:24;47.30;;;15.20;;
22298;SDS011;11317;51.072;17.036;2023-03-03T01:30:50;50.28;;;15.82;;
22298;SDS011;11317;51.072;17.036;2023-03-03T01:33:16;50.20;;;15.95;;
22298;SDS011;11317;51.072;17.036;2023-03-03T01:35:43;55.42;;;16.65;;
22298;SDS011;11317;51.072;17.036;2023-03-03T01:38:09;43.63;;;15.40;;
22298;SDS011;11317;51.072;17.036;2023-03-03T01:40:36;46.70;;;15.57;;
22298;SDS011;11317;51.072;17.036;2023-03-03T01:43:01;47.03;;;14.70;;
22298;SDS011;11317;51.072;17.036;2023-03-03T01:45:29;40.72;;;12.80;;
22298;SDS011;11317;51.072;17.036;2023-03-03T01:48:09;40.70;;;14.82;;
22298;SDS011;11317;51.072;17.036;2023-03-03T01:50:59;51.42;;;15.65;;
22298;SDS011;11317;51.072;17.036;2023-03-03T01:53:47;43.40;;;15.13;;
22298;SDS011;11317;51.072;17.036;2023-03-03T01:56:17;48.13;;;14.75;;
22298;SDS011;11317;51.072;17.036;2023-03-03T01:58:44;37.30;;;14.23;;
22298;SDS011;11317;51.072;17.036;2023-03-03T02:01:19;43.13;;;14.45;;
22298;SDS011;11317;51.072;17.036;2023-03-03T02:03:50;43.75;;;14.80;;
22298;SDS011;11317;51.072;17.036;2023-03-03T02:06:18;39.85;;;13.35;;
22298;SDS011;11317;51.072;17.036;2023-03-03T02:11:13;38.80;;;14.15;;
22298;SDS011;11317;51.072;17.036;2023-03-03T02:13:39;42.00;;;15.85;;
22298;SDS011;11317;51.072;17.036;2023-03-03T02:16:05;48.78;;;14.35;;
22298;SDS011;11317;51.072;17.036;2023-03-03T02:18:32;40.53;;;14.13;;
22298;SDS011;11317;51.072;17.036;2023-03-03T02:21:02;38.35;;;13.20;;
22298;SDS011;11317;51.072;17.036;2023-03-03T02:26:16;42.92;;;15.10;;
22298;SDS011;11317;51.072;17.036;2023-03-03T02:28:47;40.95;;;14.88;;
22298;SDS011;11317;51.072;17.036;2023-03-03T02:31:15;38.03;;;14.23;;
22298;SDS011;11317;51.072;17.036;2023-03-03T02:33:43;44.33;;;14.85;;
22298;SDS011;11317;51.072;17.036;2023-03-03T02:36:29;38.70;;;13.02;;
22298;SDS011;11317;51.072;17.036;2023-03-03T02:38:59;31.48;;;13.00;;
22298;SDS011;11317;51.072;17.036;2023-03-03T02:41:32;36.83;;;13.57;;
22298;SDS011;11317;51.072;17.036;2023-03-03T02:44:19;34.67;;;13.23;;
22298;SDS011;11317;51.072;17.036;2023-03-03T02:46:48;38.95;;;13.57;;
22298;SDS011;11317;51.072;17.036;2023-03-03T02:49:17;43.55;;;14.80;;
22298;SDS011;11317;51.072;17.036;2023-03-03T02:51:47;36.13;;;13.63;;
22298;SDS011;11317;51.072;17.036;2023-03-03T02:54:14;42.38;;;14.10;;
22298;SDS011;11317;51.072;17.036;2023-03-03T02:56:41;41.78;;;14.93;;
22298;SDS011;11317;51.072;17.036;2023-03-03T02:59:08;42.40;;;14.80;;
22298;SDS011;11317;51.072;17.036;2023-03-03T03:01:34;44.33;;;15.05;;
22298;SDS011;11317;51.072;17.036;2023-03-03T03:04:11;52.78;;;15.15;;
22298;SDS011;11317;51.072;17.036;2023-03-03T03:06:38;53.10;;;16.70;;
22298;SDS011;11317;51.072;17.036;2023-03-03T03:09:05;40.03;;;15.23;;
22298;SDS011;11317;51.072;17.036;2023-03-03T03:11:32;42.53;;;14.55;;
22298;SDS011;11317;51.072;17.036;2023-03-03T03:13:59;41.08;;;14.70;;
22298;SDS011;11317;51.072;17.036;2023-03-03T03:16:26;45.33;;;16.38;;
22298;SDS011;11317;51.072;17.036;2023-03-03T03:18:52;46.70;;;15.70;;
22298;SDS011;11317;51.072;17.036;2023-03-03T03:21:18;41.92;;;16.20;;
22298;SDS011;11317;51.072;17.036;2023-03-03T03:23:44;51.63;;;14.20;;
22298;SDS011;11317;51.072;17.036;2023-03-03T03:26:10;41.83;;;13.32;;
22298;SDS011;11317;51.072;17.036;2023-03-03T03:28:37;58.13;;;15.55;;
22298;SDS011;11317;51.072;17.036;2023-03-03T03:31:03;40.90;;;14.88;;
22298;SDS011;11317;51.072;17.036;2023-03-03T03:33:30;42.97;;;14.73;;
22298;SDS011;11317;51.072;17.036;2023-03-03T03:35:56;42.40;;;14.80;;
22298;SDS011;11317;51.072;17.036;2023-03-03T03:38:23;41.67;;;13.68;;
22298;SDS011;11317;51.072;17.036;2023-03-03T03:40:51;41.28;;;14.13;;
22298;SDS011;11317;51.072;17.036;2023-03-03T03:43:18;48.33;;;15.38;;
22298;SDS011;11317;51.072;17.036;2023-03-03T03:45:54;43.10;;;15.18;;
22298;SDS011;11317;51.072;17.036;2023-03-03T03:48:20;39.97;;;16.20;;
22298;SDS011;11317;51.072;17.036;2023-03-03T03:50:47;46.00;;;14.70;;
22298;SDS011;11317;51.072;17.036;2023-03-03T03:53:14;41.55;;;14.27;;
22298;SDS011;11317;51.072;17.036;2023-03-03T03:55:41;38.85;;;13.95;;
22298;SDS011;11317;51.072;17.036;2023-03-03T03:58:08;44.55;;;14.90;;
22298;SDS011;11317;51.072;17.036;2023-03-03T04:00:41;48.28;;;17.58;;
22298;SDS011;11317;51.072;17.036;2023-03-03T04:03:08;46.30;;;15.60;;
22298;SDS011;11317;51.072;17.036;2023-03-03T04:05:35;36.63;;;13.65;;
22298;SDS011;11317;51.072;17.036;2023-03-03T04:08:01;42.42;;;14.27;;
22298;SDS011;11317;51.072;17.036;2023-03-03T04:10:27;40.25;;;13.93;;
22298;SDS011;11317;51.072;17.036;2023-03-03T04:12:53;38.25;;;13.57;;
22298;SDS011;11317;51.072;17.036;2023-03-03T04:15:20;44.08;;;15.05;;
22298;SDS011;11317;51.072;17.036;2023-03-03T04:17:46;43.70;;;15.15;;
22298;SDS011;11317;51.072;17.036;2023-03-03T04:20:13;46.25;;;15.10;;
22298;SDS011;11317;51.072;17.036;2023-03-03T04:22:40;36.65;;;14.13;;
22298;SDS011;11317;51.072;17.036;2023-03-03T04:25:06;48.25;;;14.70;;
22298;SDS011;11317;51.072;17.036;2023-03-03T04:27:33;39.38;;;15.00;;
22298;SDS011;11317;51.072;17.036;2023-03-03T04:29:59;38.20;;;13.52;;
22298;SDS011;11317;51.072;17.036;2023-03-03T04:32:25;36.78;;;13.45;;
22298;SDS011;11317;51.072;17.036;2023-03-03T04:34:52;41.25;;;13.93;;
22298;SDS011;11317;51.072;17.036;2023-03-03T04:37:18;38.38;;;13.93;;
22298;SDS011;11317;51.072;17.036;2023-03-03T04:39:44;39.40;;;12.45;;
22298;SDS011;11317;51.072;17.036;2023-03-03T04:42:10;39.72;;;13.45;;
22298;SDS011;11317;51.072;17.036;2023-03-03T04:44:36;38.97;;;13.35;;
22298;SDS011;11317;51.072;17.036;2023-03-03T04:47:02;39.95;;;11.50;;
22298;SDS011;11317;51.072;17.036;2023-03-03T04:49:28;38.42;;;12.88;;
22298;SDS011;11317;51.072;17.036;2023-03-03T04:51:54;37.13;;;12.07;;
22298;SDS011;11317;51.072;17.036;2023-03-03T04:54:20;37.30;;;12.93;;
22298;SDS011;11317;51.072;17.036;2023-03-03T04:56:46;40.40;;;13.13;;
22298;SDS011;11317;51.072;17.036;2023-03-03T04:59:12;37.25;;;12.60;;
22298;SDS011;11317;51.072;17.036;2023-03-03T05:01:39;31.38;;;11.80;;
22298;SDS011;11317;51.072;17.036;2023-03-03T05:04:06;33.53;;;12.55;;
22298;SDS011;11317;51.072;17.036;2023-03-03T05:06:32;31.73;;;12.63;;
22298;SDS011;11317;51.072;17.036;2023-03-03T05:08:58;36.00;;;11.73;;
22298;SDS011;11317;51.072;17.036;2023-03-03T05:11:24;29.55;;;11.85;;
22298;SDS011;11317;51.072;17.036;2023-03-03T05:13:53;30.98;;;11.10;;
22298;SDS011;11317;51.072;17.036;2023-03-03T05:16:20;27.90;;;9.93;;
22298;SDS011;11317;51.072;17.036;2023-03-03T05:18:46;30.10;;;10.55;;
22298;SDS011;11317;51.072;17.036;2023-03-03T05:21:12;34.50;;;9.55;;
22298;SDS011;11317;51.072;17.036;2023-03-03T05:23:38;24.65;;;8.82;;
22298;SDS011;11317;51.072;17.036;2023-03-03T05:26:05;33.13;;;10.43;;
22298;SDS011;11317;51.072;17.036;2023-03-03T05:28:31;31.65;;;10.77;;
22298;SDS011;11317;51.072;17.036;2023-03-03T05:30:57;24.50;;;10.10;;
22298;SDS011;11317;51.072;17.036;2023-03-03T05:33:23;29.42;;;10.02;;
22298;SDS011;11317;51.072;17.036;2023-03-03T05:35:53;30.30;;;10.93;;
22298;SDS011;11317;51.072;17.036;2023-03-03T05:38:20;33.60;;;12.57;;
22298;SDS011;11317;51.072;17.036;2023-03-03T05:40:46;28.85;;;9.15;;
22298;SDS011;11317;51.072;17.036;2023-03-03T05:43:12;25.85;;;10.40;;
22298;SDS011;11317;51.072;17.036;2023-03-03T05:45:39;29.35;;;10.20;;
22298;SDS011;11317;51.072;17.036;2023-03-03T05:48:05;30.17;;;9.55;;
22298;SDS011;11317;51.072;17.036;2023-03-03T05:50:31;23.40;;;9.18;;
22298;SDS011;11317;51.072;17.036;2023-03-03T05:52:57;21.85;;;9.07;;
22298;SDS011;11317;51.072;17.036;2023-03-03T05:55:23;17.65;;;7.07;;
22298;SDS011;11317;51.072;17.036;2023-03-03T05:57:50;22.55;;;7.97;;
22298;SDS011;11317;51.072;17.036;2023-03-03T06:03:35;15.80;;;6.22;;
22298;SDS011;11317;51.072;17.036;2023-03-03T06:06:01;16.10;;;7.05;;
22298;SDS011;11317;51.072;17.036;2023-03-03T06:08:27;18.20;;;6.05;;
22298;SDS011;11317;51.072;17.036;2023-03-03T06:10:56;17.90;;;6.28;;
22298;SDS011;11317;51.072;17.036;2023-03-03T06:13:22;12.82;;;5.70;;
22298;SDS011;11317;51.072;17.036;2023-03-03T06:15:48;18.00;;;7.40;;
22298;SDS011;11317;51.072;17.036;2023-03-03T06:18:14;18.55;;;7.40;;
22298;SDS011;11317;51.072;17.036;2023-03-03T06:20:41;18.67;;;7.30;;
22298;SDS011;11317;51.072;17.036;2023-03-03T06:23:07;20.27;;;7.25;;
22298;SDS011;11317;51.072;17.036;2023-03-03T06:25:33;21.88;;;7.68;;
22298;SDS011;11317;51.072;17.036;2023-03-03T06:27:59;18.25;;;7.18;;
22298;SDS011;11317;51.072;17.036;2023-03-03T06:30:26;22.10;;;8.15;;
22298;SDS011;11317;51.072;17.036;2023-03-03T06:32:52;20.83;;;7.10;;
22298;SDS011;11317;51.072;17.036;2023-03-03T06:35:19;19.50;;;7.00;;
22298;SDS011;11317;51.072;17.036;2023-03-03T06:37:45;17.23;;;7.03;;
22298;SDS011;11317;51.072;17.036;2023-03-03T06:40:11;18.15;;;6.70;;
22298;SDS011;11317;51.072;17.036;2023-03-03T06:42:37;16.20;;;7.20;;
22298;SDS011;11317;51.072;17.036;2023-03-03T06:45:03;12.57;;;5.65;;
22298;SDS011;11317;51.072;17.036;2023-03-03T06:47:30;18.35;;;6.63;;
22298;SDS011;11317;51.072;17.036;2023-03-03T06:49:57;17.83;;;6.75;;
22298;SDS011;11317;51.072;17.036;2023-03-03T06:52:25;19.25;;;6.05;;
22298;SDS011;11317;51.072;17.036;2023-03-03T06:54:54;22.60;;;7.15;;
22298;SDS011;11317;51.072;17.036;2023-03-03T06:59:50;16.40;;;6.95;;
22298;SDS011;11317;51.072;17.036;2023-03-03T07:02:18;20.20;;;6.68;;
22298;SDS011;11317;51.072;17.036;2023-03-03T07:04:45;15.15;;;6.25;;
22298;SDS011;11317;51.072;17.036;2023-03-03T07:09:45;15.65;;;6.75;;
22298;SDS011;11317;51.072;17.036;2023-03-03T07:12:15;16.77;;;6.07;;
22298;SDS011;11317;51.072;17.036;2023-03-03T07:14:45;23.40;;;6.95;;
22298;SDS011;11317;51.072;17.036;2023-03-03T07:17:14;16.67;;;6.03;;
22298;SDS011;11317;51.072;17.036;2023-03-03T07:19:44;17.88;;;6.97;;
22298;SDS011;11317;51.072;17.036;2023-03-03T07:22:13;18.42;;;6.65;;
22298;SDS011;11317;51.072;17.036;2023-03-03T07:24:45;17.63;;;7.25;;
22298;SDS011;11317;51.072;17.036;2023-03-03T07:27:23;14.82;;;5.57;;
22298;SDS011;11317;51.072;17.036;2023-03-03T07:29:54;19.42;;;6.97;;
22298;SDS011;11317;51.072;17.036;2023-03-03T07:35:49;17.58;;;6.85;;
22298;SDS011;11317;51.072;17.036;2023-03-03T07:38:24;23.45;;;6.68;;
22298;SDS011;11317;51.072;17.036;2023-03-03T07:40:50;19.70;;;7.43;;
22298;SDS011;11317;51.072;17.036;2023-03-03T07:45:44;20.50;;;7.07;;
22298;SDS011;11317;51.072;17.036;2023-03-03T07:50:42;21.52;;;8.18;;
22298;SDS011;11317;51.072;17.036;2023-03-03T07:53:13;21.00;;;7.13;;
22298;SDS011;11317;51.072;17.036;2023-03-03T07:56:02;29.40;;;9.52;;
22298;SDS011;11317;51.072;17.036;2023-03-03T07:58:41;17.48;;;7.97;;
22298;SDS011;11317;51.072;17.036;2023-03-03T08:01:42;20.95;;;7.60;;
22298;SDS011;11317;51.072;17.036;2023-03-03T08:04:08;23.75;;;9.02;;
22298;SDS011;11317;51.072;17.036;2023-03-03T08:11:46;21.77;;;7.50;;
22298;SDS011;11317;51.072;17.036;2023-03-03T08:14:27;18.10;;;7.18;;
22298;SDS011;11317;51.072;17.036;2023-03-03T08:16:55;24.13;;;8.75;;
22298;SDS011;11317;51.072;17.036;2023-03-03T08:19:22;26.55;;;8.73;;
22298;SDS011;11317;51.072;17.036;2023-03-03T08:21:49;24.95;;;9.18;;
22298;SDS011;11317;51.072;17.036;2023-03-03T08:24:15;23.50;;;8.02;;
22298;SDS011;11317;51.072;17.036;2023-03-03T08:26:42;25.27;;;8.50;;
22298;SDS011;11317;51.072;17.036;2023-03-03T08:29:09;27.98;;;8.07;;
22298;SDS011;11317;51.072;17.036;2023-03-03T08:31:36;17.20;;;6.82;;
22298;SDS011;11317;51.072;17.036;2023-03-03T08:34:02;20.73;;;7.32;;
22298;SDS011;11317;51.072;17.036;2023-03-03T08:36:28;18.50;;;7.53;;
22298;SDS011;11317;51.072;17.036;2023-03-03T08:38:55;17.77;;;7.30;;
22298;SDS011;11317;51.072;17.036;2023-03-03T11:00:40;23.45;;;9.63;;
22298;SDS011;11317;51.072;17.036;2023-03-03T11:06:30;18.40;;;8.20;;
22298;SDS011;11317;51.072;17.036;2023-03-03T11:12:46;17.92;;;7.22;;
22298;SDS011;11317;51.072;17.036;2023-03-03T11:18:14;17.55;;;7.05;;
22298;SDS011;11317;51.072;17.036;2023-03-03T11:24:01;18.10;;;8.15;;
22298;SDS011;11317;51.072;17.036;2023-03-03T11:29:41;20.00;;;7.68;;
22298;SDS011;11317;51.072;17.036;2023-03-03T11:51:05;17.00;;;5.85;;
22298;SDS011;11317;51.072;17.036;2023-03-03T11:56:37;15.98;;;6.07;;
22298;SDS011;11317;51.072;17.036;2023-03-03T11:59:21;21.92;;;6.32;;
22298;SDS011;11317;51.072;17.036;2023-03-03T12:04:38;14.00;;;5.75;;
22298;SDS011;11317;51.072;17.036;2023-03-03T12:07:31;15.00;;;6.38;;
22298;SDS011;11317;51.072;17.036;2023-03-03T12:15:44;15.23;;;6.45;;
22298;SDS011;11317;51.072;17.036;2023-03-03T12:18:30;17.55;;;6.38;;
22298;SDS011;11317;51.072;17.036;2023-03-03T12:29:01;17.48;;;6.78;;
22298;SDS011;11317;51.072;17.036;2023-03-03T12:32:18;18.08;;;6.38;;
22298;SDS011;11317;51.072;17.036;2023-03-03T12:34:24;13.90;;;5.90;;
22298;SDS011;11317;51.072;17.036;2023-03-03T12:47:24;16.80;;;6.72;;
22298;SDS011;11317;51.072;17.036;2023-03-03T12:53:09;23.52;;;7.18;;
22298;SDS011;11317;51.072;17.036;2023-03-03T13:01:33;18.80;;;6.65;;
22298;SDS011;11317;51.072;17.036;2023-03-03T13:07:10;23.38;;;8.20;;
22298;SDS011;11317;51.072;17.036;2023-03-03T13:10:02;23.77;;;8.73;;
22298;SDS011;11317;51.072;17.036;2023-03-03T13:18:10;19.85;;;7.97;;
22298;SDS011;11317;51.072;17.036;2023-03-03T13:20:50;17.52;;;8.10;;
22298;SDS011;11317;51.072;17.036;2023-03-03T13:26:19;17.08;;;6.95;;
22298;SDS011;11317;51.072;17.036;2023-03-03T13:31:46;16.55;;;7.43;;
22298;SDS011;11317;51.072;17.036;2023-03-03T13:36:56;15.38;;;6.35;;
22298;SDS011;11317;51.072;17.036;2023-03-03T13:39:29;17.88;;;7.72;;
22298;SDS011;11317;51.072;17.036;2023-03-03T13:42:12;18.05;;;7.45;;
22298;SDS011;11317;51.072;17.036;2023-03-03T13:45:06;18.95;;;7.00;;
22298;SDS011;11317;51.072;17.036;2023-03-03T13:50:59;18.40;;;7.38;;
22298;SDS011;11317;51.072;17.036;2023-03-03T13:59:14;18.45;;;6.95;;
22298;SDS011;11317;51.072;17.036;2023-03-03T14:04:48;16.08;;;6.30;;
22298;SDS011;11317;51.072;17.036;2023-03-03T14:07:20;18.17;;;7.45;;
22298;SDS011;11317;51.072;17.036;2023-03-03T14:15:06;15.23;;;8.13;;
22298;SDS011;11317;51.072;17.036;2023-03-03T14:20:40;15.30;;;5.68;;
22298;SDS011;11317;51.072;17.036;2023-03-03T14:23:15;16.83;;;7.22;;
22298;SDS011;11317;51.072;17.036;2023-03-03T14:28:38;15.85;;;7.10;;
22298;SDS011;11317;51.072;17.036;2023-03-03T14:34:35;15.27;;;6.65;;
22298;SDS011;11317;51.072;17.036;2023-03-03T14:36:51;16.73;;;6.80;;
22298;SDS011;11317;51.072;17.036;2023-03-03T14:39:32;15.73;;;7.40;;
22298;SDS011;11317;51.072;17.036;2023-03-03T14:42:13;17.45;;;7.43;;
22298;SDS011;11317;51.072;17.036;2023-03-03T14:44:54;16.45;;;6.55;;
22298;SDS011;11317;51.072;17.036;2023-03-03T14:47:26;14.27;;;6.65;;
22298;SDS011;11317;51.072;17.036;2023-03-03T14:49:54;12.90;;;6.10;;
22298;SDS011;11317;51.072;17.036;2023-03-03T14:52:25;14.85;;;6.05;;
22298;SDS011;11317;51.072;17.036;2023-03-03T15:00:05;13.00;;;5.68;;
22298;SDS011;11317;51.072;17.036;2023-03-03T15:05:19;14.68;;;5.97;;
22298;SDS011;11317;51.072;17.036;2023-03-03T15:10:34;14.32;;;6.43;;
22298;SDS011;11317;51.072;17.036;2023-03-03T15:13:08;15.35;;;6.45;;
22298;SDS011;11317;51.072;17.036;2023-03-03T15:16:03;11.82;;;5.18;;
22298;SDS011;11317;51.072;17.036;2023-03-03T15:18:35;16.05;;;6.60;;
22298;SDS011;11317;51.072;17.036;2023-03-03T15:21:20;14.60;;;6.63;;
22298;SDS011;11317;51.072;17.036;2023-03-03T15:24:00;15.38;;;6.60;;
22298;SDS011;11317;51.072;17.036;2023-03-03T15:26:43;17.88;;;6.57;;
22298;SDS011;11317;51.072;17.036;2023-03-03T15:34:35;20.00;;;7.72;;
22298;SDS011;11317;51.072;17.036;2023-03-03T15:46:14;14.10;;;6.40;;
22298;SDS011;11317;51.072;17.036;2023-03-03T15:57:01;19.65;;;9.05;;
22298;SDS011;11317;51.072;17.036;2023-03-03T16:03:13;19.02;;;9.00;;
22298;SDS011;11317;51.072;17.036;2023-03-03T16:05:33;22.13;;;9.15;;
22298;SDS011;11317;51.072;17.036;2023-03-03T16:11:10;21.42;;;8.90;;
22298;SDS011;11317;51.072;17.036;2023-03-03T16:19:42;20.92;;;9.05;;
22298;SDS011;11317;51.072;17.036;2023-03-03T16:27:54;24.15;;;9.27;;
22298;SDS011;11317;51.072;17.036;2023-03-03T16:32:56;19.40;;;8.52;;
22298;SDS011;11317;51.072;17.036;2023-03-03T16:35:50;20.00;;;8.45;;
22298;SDS011;11317;51.072;17.036;2023-03-03T16:38:39;21.90;;;8.82;;
22298;SDS011;11317;51.072;17.036;2023-03-03T16:41:10;19.77;;;8.40;;
22298;SDS011;11317;51.072;17.036;2023-03-03T16:46:49;19.23;;;8.13;;
22298;SDS011;11317;51.072;17.036;2023-03-03T16:52:14;20.65;;;8.15;;
22298;SDS011;11317;51.072;17.036;2023-03-03T16:59:46;23.92;;;8.63;;
22298;SDS011;11317;51.072;17.036;2023-03-03T17:10:41;23.17;;;8.63;;
22298;SDS011;11317;51.072;17.036;2023-03-03T17:23:57;16.65;;;7.40;;
22298;SDS011;11317;51.072;17.036;2023-03-03T17:47:45;19.48;;;6.85;;
22298;SDS011;11317;51.072;17.036;2023-03-03T17:53:14;18.35;;;7.18;;
22298;SDS011;11317;51.072;17.036;2023-03-03T17:55:53;17.35;;;6.47;;
22298;SDS011;11317;51.072;17.036;2023-03-03T17:59:00;15.35;;;6.35;;
22298;SDS011;11317;51.072;17.036;2023-03-03T18:04:23;24.88;;;7.43;;
22298;SDS011;11317;51.072;17.036;2023-03-03T18:07:04;15.82;;;7.40;;
22298;SDS011;11317;51.072;17.036;2023-03-03T18:18:36;18.98;;;7.70;;
22298;SDS011;11317;51.072;17.036;2023-03-03T18:21:23;20.77;;;7.82;;
22298;SDS011;11317;51.072;17.036;2023-03-03T18:24:12;16.48;;;6.68;;
22298;SDS011;11317;51.072;17.036;2023-03-03T18:27:41;20.55;;;9.65;;
22298;SDS011;11317;51.072;17.036;2023-03-03T18:32:39;17.85;;;8.73;;
22298;SDS011;11317;51.072;17.036;2023-03-03T18:40:57;23.42;;;9.82;;
22298;SDS011;11317;51.072;17.036;2023-03-03T18:49:04;22.55;;;9.07;;
22298;SDS011;11317;51.072;17.036;2023-03-03T18:56:42;29.33;;;10.38;;
22298;SDS011;11317;51.072;17.036;2023-03-03T18:59:18;25.98;;;10.57;;
22298;SDS011;11317;51.072;17.036;2023-03-03T19:05:05;33.25;;;11.13;;
22298;SDS011;11317;51.072;17.036;2023-03-03T19:12:50;32.28;;;11.38;;
22298;SDS011;11317;51.072;17.036;2023-03-03T19:18:00;34.13;;;11.00;;
22298;SDS011;11317;51.072;17.036;2023-03-03T19:20:42;23.23;;;9.18;;
22298;SDS011;11317;51.072;17.036;2023-03-03T19:23:13;27.27;;;10.50;;
22298;SDS011;11317;51.072;17.036;2023-03-03T19:25:42;27.13;;;10.48;;
22298;SDS011;11317;51.072;17.036;2023-03-03T19:31:07;31.00;;;11.10;;
22298;SDS011;11317;51.072;17.036;2023-03-03T19:33:49;30.55;;;11.32;;
22298;SDS011;11317;51.072;17.036;2023-03-03T19:55:18;33.50;;;12.10;;
22298;SDS011;11317;51.072;17.036;2023-03-03T20:01:12;35.05;;;12.15;;
22298;SDS011;11317;51.072;17.036;2023-03-03T20:15:15;39.75;;;13.00;;
22298;SDS011;11317;51.072;17.036;2023-03-03T20:20:34;35.67;;;13.82;;
22298;SDS011;11317;51.072;17.036;2023-03-03T20:23:29;41.45;;;13.77;;
22298;SDS011;11317;51.072;17.036;2023-03-03T20:26:24;50.75;;;18.63;;
22298;SDS011;11317;51.072;17.036;2023-03-03T20:35:36;36.58;;;12.13;;
22298;SDS011;11317;51.072;17.036;2023-03-03T20:37:46;37.78;;;12.38;;
22298;SDS011;11317;51.072;17.036;2023-03-03T20:40:57;32.05;;;12.57;;
22298;SDS011;11317;51.072;17.036;2023-03-03T20:43:15;26.92;;;12.68;;
22298;SDS011;11317;51.072;17.036;2023-03-03T21:01:33;36.22;;;15.10;;
22298;SDS011;11317;51.072;17.036;2023-03-03T21:04:20;41.03;;;15.07;;
22298;SDS011;11317;51.072;17.036;2023-03-03T21:06:48;38.55;;;13.73;;
22298;SDS011;11317;51.072;17.036;2023-03-03T21:09:28;39.20;;;14.82;;
22298;SDS011;11317;51.072;17.036;2023-03-03T21:11:56;38.13;;;14.10;;
22298;SDS011;11317;51.072;17.036;2023-03-03T21:16:54;31.60;;;12.90;;
22298;SDS011;11317;51.072;17.036;2023-03-03T21:19:23;38.20;;;14.30;;
22298;SDS011;11317;51.072;17.036;2023-03-03T21:21:51;38.88;;;14.98;;
22298;SDS011;11317;51.072;17.036;2023-03-03T21:24:17;36.50;;;13.40;;
22298;SDS011;11317;51.072;17.036;2023-03-03T21:29:27;34.35;;;13.68;;
22298;SDS011;11317;51.072;17.036;2023-03-03T21:34:23;40.47;;;14.30;;
22298;SDS011;11317;51.072;17.036;2023-03-03T21:36:51;37.40;;;14.05;;
22298;SDS011;11317;51.072;17.036;2023-03-03T21:41:53;38.88;;;14.93;;
22298;SDS011;11317;51.072;17.036;2023-03-03T21:47:25;51.55;;;18.35;;
22298;SDS011;11317;51.072;17.036;2023-03-03T21:49:52;40.78;;;14.98;;
22298;SDS011;11317;51.072;17.036;2023-03-03T21:52:19;34.53;;;13.45;;
22298;SDS011;11317;51.072;17.036;2023-03-03T21:54:47;39.35;;;13.93;;
22298;SDS011;11317;51.072;17.036;2023-03-03T21:57:14;33.65;;;13.25;;
22298;SDS011;11317;51.072;17.036;2023-03-03T21:59:41;39.88;;;14.20;;
22298;SDS011;11317;51.072;17.036;2023-03-03T22:02:07;32.47;;;13.70;;
22298;SDS011;11317;51.072;17.036;2023-03-03T22:04:33;36.78;;;13.60;;
22298;SDS011;11317;51.072;17.036;2023-03-03T22:06:59;36.75;;;13.43;;
22298;SDS011;11317;51.072;17.036;2023-03-03T22:09:25;39.35;;;14.38;;
22298;SDS011;11317;51.072;17.036;2023-03-03T22:11:51;37.47;;;14.77;;
22298;SDS011;11317;51.072;17.036;2023-03-03T22:14:17;43.90;;;15.63;;
22298;SDS011;11317;51.072;17.036;2023-03-03T22:16:44;44.15;;;14.85;;
22298;SDS011;11317;51.072;17.036;2023-03-03T22:19:10;45.80;;;14.13;;
22298;SDS011;11317;51.072;17.036;2023-03-03T22:21:36;38.83;;;14.65;;
22298;SDS011;11317;51.072;17.036;2023-03-03T22:24:03;38.45;;;13.25;;
22298;SDS011;11317;51.072;17.036;2023-03-03T22:26:30;44.05;;;13.60;;
22298;SDS011;11317;51.072;17.036;2023-03-03T22:28:56;35.38;;;11.93;;
22298;SDS011;11317;51.072;17.036;2023-03-03T22:31:22;35.08;;;12.73;;
22298;SDS011;11317;51.072;17.036;2023-03-03T22:33:49;38.45;;;14.70;;
22298;SDS011;11317;51.072;17.036;2023-03-03T22:36:15;36.53;;;15.15;;
22298;SDS011;11317;51.072;17.036;2023-03-03T22:38:43;37.30;;;14.25;;
22298;SDS011;11317;51.072;17.036;2023-03-03T22:41:09;34.92;;;14.25;;
22298;SDS011;11317;51.072;17.036;2023-03-03T22:43:35;39.20;;;15.88;;
22298;SDS011;11317;51.072;17.036;2023-03-03T22:46:01;39.70;;;13.52;;
22298;SDS011;11317;51.072;17.036;2023-03-03T22:48:28;38.97;;;13.40;;
22298;SDS011;11317;51.072;17.036;2023-03-03T22:50:54;37.03;;;13.80;;
22298;SDS011;11317;51.072;17.036;2023-03-03T22:53:21;37.92;;;13.85;;
22298;SDS011;11317;51.072;17.036;2023-03-03T22:55:47;36.28;;;12.10;;
22298;SDS011;11317;51.072;17.036;2023-03-03T22:58:13;32.10;;;13.00;;
22298;SDS011;11317;51.072;17.036;2023-03-03T23:00:39;30.55;;;11.73;;
22298;SDS011;11317;51.072;17.036;2023-03-03T23:03:09;27.85;;;11.25;;
22298;SDS011;11317;51.072;17.036;2023-03-03T23:05:35;29.55;;;11.63;;
22298;SDS011;11317;51.072;17.036;2023-03-03T23:08:02;34.25;;;11.43;;
22298;SDS011;11317;51.072;17.036;2023-03-03T23:10:29;30.02;;;11.75;;
22298;SDS011;11317;51.072;17.036;2023-03-03T23:12:55;27.85;;;11.90;;